createdAt,value
2023-01-29T00:01:06.023Z,0.53
2023-01-29T00:03:34.380Z,0.60
2023-01-29T00:06:02.993Z,0.56
2023-01-29T00:08:30.559Z,0.55
2023-01-29T00:10:57.161Z,0.54
2023-01-29T00:13:24.751Z,0.56
2023-01-29T00:15:53.337Z,0.52
2023-01-29T00:18:20.955Z,0.56
2023-01-29T00:20:49.883Z,0.49
2023-01-29T00:23:18.642Z,0.53
2023-01-29T00:25:46.741Z,0.53
2023-01-29T00:28:15.340Z,0.52
2023-01-29T00:30:43.928Z,0.50
2023-01-29T00:33:12.664Z,0.50
2023-01-29T00:35:41.871Z,0.56
2023-01-29T00:38:10.762Z,0.57
2023-01-29T00:40:38.306Z,0.53
2023-01-29T00:43:05.891Z,0.56
2023-01-29T00:45:34.684Z,0.56
2023-01-29T00:48:03.129Z,0.63
2023-01-29T00:50:31.728Z,0.63
2023-01-29T00:53:00.320Z,0.66
2023-01-29T00:55:27.949Z,0.67
2023-01-29T00:57:56.720Z,0.71
2023-01-29T01:00:26.099Z,0.67
2023-01-29T01:02:55.371Z,0.71
2023-01-29T01:05:22.320Z,0.72
2023-01-29T01:07:51.474Z,0.75
2023-01-29T01:10:18.660Z,0.74
2023-01-29T01:12:47.115Z,0.72
2023-01-29T01:15:15.851Z,0.69
2023-01-29T01:17:43.324Z,0.67
2023-01-29T01:20:11.913Z,0.62
2023-01-29T01:22:40.867Z,0.61
2023-01-29T01:25:09.095Z,0.62
2023-01-29T01:27:36.694Z,0.63
2023-01-29T01:30:05.265Z,0.59
2023-01-29T01:32:32.889Z,0.53
2023-01-29T01:35:00.464Z,0.53
2023-01-29T01:37:28.085Z,0.48
2023-01-29T01:39:56.823Z,0.53
2023-01-29T01:42:24.268Z,0.53
2023-01-29T01:44:51.868Z,0.47
2023-01-29T01:47:20.485Z,0.48
2023-01-29T01:49:48.062Z,0.48
2023-01-29T01:52:15.640Z,0.49
2023-01-29T01:54:43.276Z,0.50
2023-01-29T01:57:10.885Z,0.51
2023-01-29T01:59:40.110Z,0.50
2023-01-29T02:02:07.063Z,0.55
2023-01-29T02:04:34.665Z,0.51
2023-01-29T02:07:03.833Z,0.53
2023-01-29T02:09:31.836Z,0.48
2023-01-29T02:12:00.623Z,0.49
2023-01-29T02:14:28.069Z,0.44
2023-01-29T02:16:56.734Z,0.47
2023-01-29T02:19:24.251Z,0.52
2023-01-29T02:21:52.872Z,0.49
2023-01-29T02:24:20.559Z,0.51
2023-01-29T02:26:49.048Z,0.49
2023-01-29T02:29:17.657Z,0.41
2023-01-29T02:31:46.244Z,0.39
2023-01-29T02:34:13.836Z,0.37
2023-01-29T02:36:41.435Z,0.41
2023-01-29T02:39:10.058Z,0.34
2023-01-29T02:41:37.620Z,0.33
2023-01-29T02:44:04.218Z,0.30
2023-01-29T02:46:31.801Z,0.35
2023-01-29T02:49:00.411Z,0.33
2023-01-29T02:51:26.993Z,0.27
2023-01-29T02:53:55.959Z,0.22
2023-01-29T02:56:23.205Z,0.25
2023-01-29T02:58:50.800Z,0.28
2023-01-29T03:01:19.391Z,0.25
2023-01-29T03:03:47.003Z,0.25
2023-01-29T03:06:15.570Z,0.26
2023-01-29T03:08:44.474Z,0.27
2023-01-29T03:11:11.803Z,0.32
2023-01-29T03:13:39.369Z,0.34
2023-01-29T03:16:07.017Z,0.34
2023-01-29T03:18:34.568Z,0.34
2023-01-29T03:21:01.468Z,0.38
2023-01-29T03:23:28.735Z,0.39
2023-01-29T03:25:56.355Z,0.36
2023-01-29T03:28:23.936Z,0.25
2023-01-29T03:30:52.811Z,0.29
2023-01-29T03:33:19.629Z,0.24
2023-01-29T03:35:47.740Z,0.24
2023-01-29T03:38:16.325Z,0.19
2023-01-29T03:40:42.957Z,0.14
2023-01-29T03:43:11.674Z,0.15
2023-01-29T03:45:39.149Z,0.14
2023-01-29T03:48:06.711Z,0.16
2023-01-29T03:50:35.735Z,0.19
2023-01-29T03:53:02.878Z,0.12
2023-01-29T03:55:30.491Z,0.14
2023-01-29T03:57:58.064Z,0.12
2023-01-29T04:00:25.676Z,0.06
2023-01-29T04:02:52.305Z,0.02
2023-01-29T04:05:19.905Z,0.04
2023-01-29T04:07:47.487Z,0.06
2023-01-29T04:10:16.835Z,0.08
2023-01-29T04:12:43.708Z,0.08
2023-01-29T04:15:12.302Z,0.08
2023-01-29T04:17:39.970Z,0.04
2023-01-29T04:20:07.502Z,0.08
2023-01-29T04:22:35.124Z,0.15
2023-01-29T04:25:03.673Z,0.14
2023-01-29T04:27:32.533Z,0.16
2023-01-29T04:29:59.885Z,0.23
2023-01-29T04:32:28.452Z,0.23
2023-01-29T04:34:56.081Z,0.23
2023-01-29T04:37:24.664Z,0.14
2023-01-29T04:39:53.302Z,0.11
2023-01-29T04:42:24.760Z,0.07
2023-01-29T04:44:51.511Z,0.08
2023-01-29T04:47:19.119Z,0.12
2023-01-29T04:49:46.664Z,0.13
2023-01-29T04:52:14.264Z,0.20
2023-01-29T04:54:42.847Z,0.19
2023-01-29T04:57:11.872Z,0.18
2023-01-29T04:59:40.067Z,0.22
2023-01-29T05:02:08.678Z,0.19
2023-01-29T05:04:37.283Z,0.22
2023-01-29T05:07:05.880Z,0.23
2023-01-29T05:09:34.927Z,0.23
2023-01-29T05:12:02.076Z,0.25
2023-01-29T05:14:30.975Z,0.27
2023-01-29T05:16:58.288Z,0.31
2023-01-29T05:19:26.901Z,0.33
2023-01-29T05:21:55.504Z,0.39
2023-01-29T05:24:23.228Z,0.34
2023-01-29T05:26:52.162Z,0.32
2023-01-29T05:29:20.275Z,0.30
2023-01-29T05:31:48.926Z,0.28
2023-01-29T05:34:17.475Z,0.27
2023-01-29T05:36:45.081Z,0.30
2023-01-29T05:39:14.093Z,0.29
2023-01-29T05:41:41.267Z,0.31
2023-01-29T05:44:10.394Z,0.32
2023-01-29T05:46:38.463Z,0.31
2023-01-29T05:49:08.079Z,0.32
2023-01-29T05:51:35.684Z,0.30
2023-01-29T05:54:04.661Z,0.26
2023-01-29T05:56:31.840Z,0.23
2023-01-29T05:58:59.464Z,0.22
2023-01-29T06:01:27.051Z,0.24
2023-01-29T06:03:54.634Z,0.23
2023-01-29T06:06:23.249Z,0.13
2023-01-29T06:08:51.825Z,0.16
2023-01-29T06:11:18.462Z,0.19
2023-01-29T06:13:46.013Z,0.18
2023-01-29T06:16:14.884Z,0.17
2023-01-29T06:18:43.218Z,0.14
2023-01-29T06:21:11.793Z,0.18
2023-01-29T06:23:40.694Z,0.14
2023-01-29T06:26:09.015Z,0.16
2023-01-29T06:28:37.601Z,0.20
2023-01-29T06:33:54.018Z,0.25
2023-01-29T06:36:21.489Z,0.25
2023-01-29T06:38:49.090Z,0.25
2023-01-29T06:41:17.758Z,0.27
2023-01-29T06:43:45.309Z,0.26
2023-01-29T06:46:12.859Z,0.24
2023-01-29T06:48:41.855Z,0.21
2023-01-29T06:51:09.095Z,0.19
2023-01-29T06:53:36.678Z,0.26
2023-01-29T06:56:05.693Z,0.28
2023-01-29T06:58:32.846Z,0.28
2023-01-29T07:01:01.811Z,0.27
2023-01-29T07:03:30.065Z,0.29
2023-01-29T07:05:58.834Z,0.27
2023-01-29T07:08:27.576Z,0.24
2023-01-29T07:10:56.540Z,0.23
2023-01-29T07:13:23.453Z,0.24
2023-01-29T07:15:51.050Z,0.21
2023-01-29T07:18:19.671Z,0.19
2023-01-29T07:20:47.301Z,0.14
2023-01-29T07:23:14.856Z,0.22
2023-01-29T07:25:42.506Z,0.20
2023-01-29T07:28:10.060Z,0.23
2023-01-29T07:30:39.393Z,0.21
2023-01-29T07:33:07.656Z,0.24
2023-01-29T07:35:35.863Z,0.26
2023-01-29T07:38:03.559Z,0.27
2023-01-29T07:40:31.143Z,0.30
2023-01-29T07:42:57.711Z,0.34
2023-01-29T07:45:26.377Z,0.36
2023-01-29T07:47:53.927Z,0.43
2023-01-29T07:50:21.520Z,0.47
2023-01-29T07:52:50.689Z,0.44
2023-01-29T07:55:17.670Z,0.48
2023-01-29T07:57:46.263Z,0.50
2023-01-29T08:00:15.226Z,0.51
2023-01-29T08:02:42.483Z,0.53
2023-01-29T08:05:11.077Z,0.54
2023-01-29T08:07:38.657Z,0.59
2023-01-29T08:10:08.987Z,0.65
2023-01-29T08:12:35.861Z,0.69
2023-01-29T08:15:04.459Z,0.78
2023-01-29T08:17:32.024Z,0.82
2023-01-29T08:19:59.652Z,0.91
2023-01-29T08:22:28.227Z,0.91
2023-01-29T08:25:06.302Z,0.95
2023-01-29T08:27:35.486Z,0.98
2023-01-29T08:30:03.087Z,0.99
2023-01-29T08:32:30.676Z,1.02
2023-01-29T08:34:58.270Z,1.03
2023-01-29T08:43:02.010Z,1.06
2023-01-29T08:45:29.831Z,1.09
2023-01-29T08:47:57.497Z,1.15
2023-01-29T08:50:25.078Z,1.18
2023-01-29T08:52:51.545Z,1.27
2023-01-29T08:55:18.661Z,1.28
2023-01-29T08:57:46.859Z,1.34
2023-01-29T09:00:13.308Z,1.38
2023-01-29T09:02:39.840Z,1.46
2023-01-29T09:05:06.651Z,1.52
2023-01-29T09:07:33.232Z,1.54
2023-01-29T09:10:02.120Z,1.51
2023-01-29T09:12:29.420Z,1.57
2023-01-29T09:14:56.022Z,1.58
2023-01-29T09:17:22.493Z,1.59
2023-01-29T09:19:49.225Z,1.62
2023-01-29T09:22:16.787Z,1.80
2023-01-29T09:24:43.384Z,1.75
2023-01-29T09:27:09.996Z,1.79
2023-01-29T09:29:37.587Z,1.79
2023-01-29T09:32:04.064Z,1.86
2023-01-29T09:34:30.752Z,1.87
2023-01-29T09:36:57.345Z,1.93
2023-01-29T09:39:24.969Z,2.00
2023-01-29T09:41:51.580Z,2.02
2023-01-29T09:44:18.435Z,1.99
2023-01-29T09:46:45.741Z,2.06
2023-01-29T09:49:13.334Z,2.07
2023-01-29T09:51:40.934Z,2.16
2023-01-29T09:54:08.539Z,2.27
2023-01-29T09:56:35.158Z,2.34
2023-01-29T09:59:02.736Z,2.37
2023-01-29T10:01:29.387Z,2.39
2023-01-29T10:03:56.912Z,2.39
2023-01-29T10:06:23.388Z,2.42
2023-01-29T10:08:49.839Z,2.41
2023-01-29T10:11:16.320Z,2.44
2023-01-29T10:13:42.749Z,2.47
2023-01-29T10:16:09.197Z,2.47
2023-01-29T10:18:36.449Z,2.53
2023-01-29T10:21:05.140Z,2.59
2023-01-29T10:23:34.443Z,2.60
2023-01-29T10:26:02.237Z,2.61
2023-01-29T10:28:29.817Z,2.67
2023-01-29T10:30:56.336Z,2.78
2023-01-29T10:33:24.053Z,2.92
2023-01-29T10:35:50.877Z,3.04
2023-01-29T10:38:19.202Z,3.17
2023-01-29T10:40:46.801Z,3.24
2023-01-29T10:43:16.379Z,3.37
2023-01-29T10:45:43.986Z,3.48
2023-01-29T10:48:10.582Z,3.51
2023-01-29T10:50:37.036Z,3.53
2023-01-29T10:53:03.778Z,3.56
2023-01-29T10:55:30.464Z,3.55
2023-01-29T10:57:59.060Z,3.51
2023-01-29T11:00:25.651Z,3.48
2023-01-29T11:02:52.545Z,3.42
2023-01-29T11:05:20.841Z,3.41
2023-01-29T11:07:48.453Z,3.38
2023-01-29T11:10:16.202Z,3.34
2023-01-29T11:12:43.653Z,3.33
2023-01-29T11:15:11.251Z,3.30
2023-01-29T11:17:37.824Z,3.31
2023-01-29T11:20:05.423Z,3.32
2023-01-29T11:22:32.001Z,3.33
2023-01-29T11:25:00.620Z,3.34
2023-01-29T11:27:28.211Z,3.38
2023-01-29T11:29:55.798Z,3.40
2023-01-29T11:32:24.413Z,3.39
2023-01-29T11:34:51.256Z,3.36
2023-01-29T11:37:18.590Z,3.38
2023-01-29T11:39:46.241Z,3.33
2023-01-29T11:42:14.918Z,3.38
2023-01-29T11:44:42.465Z,3.37
2023-01-29T11:47:11.065Z,3.38
2023-01-29T11:49:37.763Z,3.43
2023-01-29T11:52:05.345Z,3.50
2023-01-29T11:54:32.923Z,3.52
2023-01-29T11:57:00.519Z,3.51
2023-01-29T11:59:28.132Z,3.49
2023-01-29T12:01:54.780Z,3.46
2023-01-29T12:04:22.343Z,3.49
2023-01-29T12:06:51.079Z,3.52
2023-01-29T12:09:18.561Z,3.56
2023-01-29T12:11:45.486Z,3.58
2023-01-29T12:14:13.742Z,3.62
2023-01-29T12:16:42.605Z,3.64
2023-01-29T12:19:11.784Z,3.64
2023-01-29T12:21:41.818Z,3.63
2023-01-29T12:24:08.660Z,3.64
2023-01-29T12:26:35.319Z,3.69
2023-01-29T12:29:01.857Z,3.70
2023-01-29T12:31:29.499Z,3.68
2023-01-29T12:33:57.058Z,3.66
2023-01-29T12:36:23.661Z,3.68
2023-01-29T12:38:50.348Z,3.72
2023-01-29T12:41:17.928Z,3.72
2023-01-29T12:43:44.534Z,3.73
2023-01-29T12:46:12.135Z,3.70
2023-01-29T12:48:38.728Z,3.74
2023-01-29T12:51:05.378Z,3.78
2023-01-29T12:53:31.991Z,3.82
2023-01-29T12:55:58.791Z,3.83
2023-01-29T12:58:26.388Z,3.84
2023-01-29T13:00:53.058Z,3.90
2023-01-29T13:03:19.765Z,3.92
2023-01-29T13:05:46.255Z,3.96
2023-01-29T13:08:13.875Z,4.00
2023-01-29T13:10:40.500Z,4.03
2023-01-29T13:13:07.393Z,4.09
2023-01-29T13:15:34.721Z,4.14
2023-01-29T13:18:01.373Z,4.17
2023-01-29T13:20:30.233Z,4.15
2023-01-29T13:22:57.562Z,4.17
2023-01-29T13:25:24.178Z,4.22
2023-01-29T13:27:52.132Z,4.24
2023-01-29T13:30:20.613Z,4.24
2023-01-29T13:32:48.211Z,4.27
2023-01-29T13:35:17.059Z,4.29
2023-01-29T13:37:45.440Z,4.31
2023-01-29T13:40:13.040Z,4.29
2023-01-29T13:42:40.633Z,4.20
2023-01-29T13:45:08.212Z,4.00
2023-01-29T13:47:35.830Z,3.97
2023-01-29T13:50:02.475Z,4.00
2023-01-29T13:52:30.101Z,4.04
2023-01-29T13:54:57.685Z,4.01
2023-01-29T13:57:25.292Z,4.01
2023-01-29T13:59:52.883Z,4.03
2023-01-29T14:02:19.879Z,4.10
2023-01-29T14:04:48.060Z,4.14
2023-01-29T14:07:16.968Z,4.13
2023-01-29T14:09:44.271Z,4.10
2023-01-29T14:12:11.831Z,4.09
2023-01-29T14:14:39.477Z,4.06
2023-01-29T14:17:07.057Z,4.04
2023-01-29T14:19:34.824Z,4.02
2023-01-29T14:22:02.381Z,4.03
2023-01-29T14:24:30.017Z,4.00
2023-01-29T14:26:56.591Z,4.01
2023-01-29T14:29:33.911Z,4.04
2023-01-29T14:32:01.955Z,4.06
2023-01-29T14:34:29.546Z,4.07
2023-01-29T14:36:56.121Z,4.11
2023-01-29T14:39:22.537Z,4.09
2023-01-29T14:41:48.974Z,4.10
2023-01-29T14:44:15.919Z,4.10
2023-01-29T14:46:42.571Z,4.09
2023-01-29T14:49:10.136Z,4.06
2023-01-29T14:51:36.553Z,4.02
2023-01-29T14:54:02.983Z,3.98
2023-01-29T14:56:29.390Z,3.95
2023-01-29T14:58:56.310Z,3.99
2023-01-29T15:01:23.612Z,4.00
2023-01-29T15:03:50.034Z,3.98
2023-01-29T15:06:16.464Z,3.99
2023-01-29T15:08:43.902Z,4.03
2023-01-29T15:11:10.316Z,4.00
2023-01-29T15:13:36.772Z,3.92
2023-01-29T15:16:03.751Z,3.67
2023-01-29T15:18:30.221Z,3.59
2023-01-29T15:20:56.624Z,3.56
2023-01-29T15:23:26.066Z,3.57
2023-01-29T15:25:52.468Z,3.59
2023-01-29T15:28:18.872Z,3.58
2023-01-29T15:30:45.765Z,3.56
2023-01-29T15:33:12.216Z,3.65
2023-01-29T15:35:38.638Z,3.39
2023-01-29T15:38:05.060Z,3.30
2023-01-29T15:40:31.488Z,3.26
2023-01-29T15:42:57.952Z,3.30
2023-01-29T15:45:24.877Z,3.30
2023-01-29T15:47:51.460Z,3.27
2023-01-29T15:50:17.904Z,3.26
2023-01-29T15:52:44.678Z,3.18
2023-01-29T15:55:11.208Z,3.07
2023-01-29T15:57:37.849Z,3.01
2023-01-29T16:00:04.235Z,2.96
2023-01-29T16:02:30.776Z,2.94
2023-01-29T16:04:57.619Z,2.92
2023-01-29T16:07:24.041Z,2.91
2023-01-29T16:09:50.470Z,2.86
2023-01-29T16:12:16.903Z,2.84
2023-01-29T16:14:43.332Z,2.81
2023-01-29T16:17:10.113Z,2.78
2023-01-29T16:19:36.511Z,2.70
2023-01-29T16:22:02.919Z,2.62
2023-01-29T16:24:29.340Z,2.56
2023-01-29T16:26:56.946Z,2.49
2023-01-29T16:29:23.359Z,2.40
2023-01-29T16:31:49.877Z,2.33
2023-01-29T16:34:16.326Z,2.27
2023-01-29T16:36:42.791Z,2.18
2023-01-29T16:39:09.186Z,2.08
2023-01-29T16:41:36.451Z,1.97
2023-01-29T16:44:03.244Z,1.85
2023-01-29T16:46:30.657Z,1.78
2023-01-29T16:48:57.086Z,1.67
2023-01-29T16:51:23.502Z,1.55
2023-01-29T16:53:49.901Z,1.45
2023-01-29T16:56:17.049Z,1.34
2023-01-29T16:58:43.634Z,1.26
2023-01-29T17:01:10.261Z,1.21
2023-01-29T17:03:36.721Z,1.13
2023-01-29T17:06:03.153Z,1.05
2023-01-29T17:08:29.827Z,1.00
2023-01-29T17:10:56.292Z,0.93
2023-01-29T17:13:22.725Z,0.87
2023-01-29T17:15:49.808Z,0.80
2023-01-29T17:18:17.381Z,0.71
2023-01-29T17:20:44.002Z,0.65
2023-01-29T17:23:10.565Z,0.54
2023-01-29T17:25:37.407Z,0.51
2023-01-29T17:28:04.772Z,0.45
2023-01-29T17:30:32.385Z,0.34
2023-01-29T17:32:59.065Z,0.30
2023-01-29T17:35:25.497Z,0.17
2023-01-29T17:37:52.227Z,0.08
2023-01-29T17:40:18.838Z,0.03
2023-01-29T17:42:45.429Z,0.07
2023-01-29T17:45:11.867Z,-0.04
2023-01-29T17:47:38.607Z,-0.20
2023-01-29T17:50:06.415Z,-0.27
2023-01-29T17:52:33.794Z,-0.26
2023-01-29T17:55:01.406Z,-0.24
2023-01-29T17:57:27.842Z,-0.29
2023-01-29T17:59:54.274Z,-0.26
2023-01-29T18:02:28.810Z,-0.25
2023-01-29T18:04:56.237Z,-0.21
2023-01-29T18:07:22.677Z,-0.14
2023-01-29T18:09:51.001Z,-0.07
2023-01-29T18:12:17.581Z,-0.08
2023-01-29T18:14:44.028Z,0.03
2023-01-29T18:17:10.445Z,0.04
2023-01-29T18:19:36.857Z,0.09
2023-01-29T18:22:03.958Z,0.15
2023-01-29T18:24:31.583Z,0.25
2023-01-29T18:26:59.165Z,0.25
2023-01-29T18:29:25.742Z,0.27
2023-01-29T18:31:53.450Z,0.30
2023-01-29T18:34:19.959Z,0.33
2023-01-29T18:36:46.360Z,0.48
2023-01-29T18:39:12.826Z,0.36
2023-01-29T18:41:39.254Z,0.27
2023-01-29T18:44:05.698Z,0.24
2023-01-29T18:46:33.088Z,0.33
2023-01-29T18:49:00.711Z,0.37
2023-01-29T18:51:28.330Z,0.23
2023-01-29T18:53:56.896Z,0.13
2023-01-29T18:56:25.496Z,0.07
2023-01-29T18:58:53.168Z,0.09
2023-01-29T19:01:22.740Z,0.16
2023-01-29T19:03:49.545Z,0.14
2023-01-29T19:06:15.983Z,0.13
2023-01-29T19:08:42.393Z,0.17
2023-01-29T19:11:08.936Z,0.08
2023-01-29T19:13:35.461Z,-0.01
2023-01-29T19:16:01.908Z,-0.01
2023-01-29T19:18:28.354Z,-0.20
2023-01-29T19:20:55.508Z,-0.20
2023-01-29T19:23:23.227Z,-0.38
2023-01-29T19:25:50.678Z,-0.58
2023-01-29T19:28:17.270Z,-0.72
2023-01-29T19:30:43.888Z,-0.72
2023-01-29T19:33:10.800Z,-0.86
2023-01-29T19:35:37.240Z,-1.01
2023-01-29T19:38:04.716Z,-1.09
2023-01-29T19:40:32.279Z,-1.05
2023-01-29T19:42:58.960Z,-1.09
2023-01-29T19:45:49.520Z,-1.14
2023-01-29T19:48:12.875Z,-1.18
2023-01-29T19:50:39.341Z,-1.18
2023-01-29T19:53:05.805Z,-1.19
2023-01-29T19:55:32.235Z,-1.21
2023-01-29T19:57:58.672Z,-1.24
2023-01-29T20:00:25.122Z,-1.26
2023-01-29T20:02:51.542Z,-1.30
2023-01-29T20:05:18.802Z,-1.33
2023-01-29T20:07:45.916Z,-1.32
2023-01-29T20:10:12.519Z,-1.27
2023-01-29T20:12:39.124Z,-1.30
2023-01-29T20:15:06.709Z,-1.24
2023-01-29T20:17:34.296Z,-1.28
2023-01-29T20:20:02.686Z,-1.22
2023-01-29T20:22:29.484Z,-1.33
2023-01-29T20:24:57.074Z,-1.52
2023-01-29T20:27:23.671Z,-1.47
2023-01-29T20:29:50.255Z,-1.52
2023-01-29T20:32:17.871Z,-1.53
2023-01-29T20:34:45.434Z,-1.41
2023-01-29T20:37:11.888Z,-1.37
2023-01-29T20:39:38.338Z,-1.39
2023-01-29T20:42:05.201Z,-1.60
2023-01-29T20:44:32.797Z,-1.60
2023-01-29T20:47:01.863Z,-1.51
2023-01-29T20:49:28.978Z,-1.55
2023-01-29T20:51:55.450Z,-1.50
2023-01-29T20:54:21.892Z,-1.55
2023-01-29T20:56:48.457Z,-1.61
2023-01-29T20:59:15.145Z,-1.64
2023-01-29T21:01:42.503Z,-1.53
2023-01-29T21:04:08.949Z,-1.41
2023-01-29T21:06:35.393Z,-1.39
2023-01-29T21:09:01.814Z,-1.37
2023-01-29T21:11:28.309Z,-1.39
2023-01-29T21:13:55.102Z,-1.28
2023-01-29T21:16:21.636Z,-1.31
2023-01-29T21:18:48.359Z,-1.40
2023-01-29T21:21:14.791Z,-1.46
2023-01-29T21:23:41.235Z,-1.27
2023-01-29T21:26:08.122Z,-1.32
2023-01-29T21:28:35.710Z,-1.48
2023-01-29T21:31:02.594Z,-1.38
2023-01-29T21:33:29.042Z,-1.40
2023-01-29T21:35:55.463Z,-1.45
2023-01-29T21:38:21.915Z,-1.46
2023-01-29T21:40:48.335Z,-1.44
2023-01-29T21:43:14.784Z,-1.63
2023-01-29T21:45:41.405Z,-1.63
2023-01-29T21:48:08.455Z,-1.66
2023-01-29T21:50:35.023Z,-1.61
2023-01-29T21:53:01.644Z,-1.76
2023-01-29T21:55:29.233Z,-1.65
2023-01-29T21:57:55.659Z,-1.70
2023-01-29T22:00:22.079Z,-1.63
2023-01-29T22:02:48.549Z,-1.55
2023-01-29T22:05:19.620Z,-1.59
2023-01-29T22:07:48.292Z,-1.56
2023-01-29T22:10:16.278Z,-1.61
2023-01-29T22:12:43.406Z,-1.59
2023-01-29T22:15:09.994Z,-1.68
2023-01-29T22:17:36.594Z,-1.84
2023-01-29T22:20:04.168Z,-1.84
2023-01-29T22:22:31.764Z,-1.97
2023-01-29T22:24:59.372Z,-1.86
2023-01-29T22:27:25.831Z,-1.94
2023-01-29T22:29:52.544Z,-2.01
2023-01-29T22:32:20.157Z,-1.82
2023-01-29T22:34:47.731Z,-2.03
2023-01-29T22:37:15.328Z,-2.14
2023-01-29T22:39:41.926Z,-1.84
2023-01-29T22:42:09.530Z,-1.72
2023-01-29T22:44:37.090Z,-1.71
2023-01-29T22:47:04.711Z,-1.68
2023-01-29T22:49:31.282Z,-1.84
2023-01-29T22:52:00.565Z,-1.95
2023-01-29T22:54:27.466Z,-2.15
2023-01-29T22:56:53.903Z,-2.02
2023-01-29T22:59:20.358Z,-2.00
2023-01-29T23:01:46.841Z,-2.02
2023-01-29T23:04:13.877Z,-1.99
2023-01-29T23:06:41.439Z,-1.98
2023-01-29T23:09:08.020Z,-2.00
2023-01-29T23:11:35.619Z,-2.00
2023-01-29T23:14:02.059Z,-2.08
2023-01-29T23:16:28.910Z,-2.04
2023-01-29T23:18:56.487Z,-1.97
2023-01-29T23:21:25.237Z,-2.13
2023-01-29T23:23:52.262Z,-2.09
2023-01-29T23:26:19.322Z,-2.02
2023-01-29T23:28:46.879Z,-2.08
2023-01-29T23:31:13.497Z,-2.06
2023-01-29T23:33:40.050Z,-2.14
2023-01-29T23:36:07.674Z,-2.15
2023-01-29T23:38:34.274Z,-1.95
2023-01-29T23:41:00.855Z,-1.97
2023-01-29T23:43:27.271Z,-2.28
2023-01-29T23:45:54.037Z,-2.27
2023-01-29T23:48:21.616Z,-2.15
2023-01-29T23:50:48.482Z,-2.20
2023-01-29T23:53:14.907Z,-2.20
2023-01-29T23:55:42.459Z,-2.16
2023-01-29T23:58:09.266Z,-2.27
